createdAt,value
2022-10-12T00:00:59.657Z,38.85
2022-10-12T00:03:26.210Z,41.25
2022-10-12T00:06:01.211Z,35.08
2022-10-12T00:08:27.843Z,37.95
2022-10-12T00:10:54.439Z,42.22
2022-10-12T00:13:22.396Z,42.53
2022-10-12T00:15:48.964Z,34.92
2022-10-12T00:18:15.573Z,36.72
2022-10-12T00:20:42.142Z,35.38
2022-10-12T00:23:08.690Z,33.97
2022-10-12T00:25:36.447Z,31.83
2022-10-12T00:28:03.041Z,34.65
2022-10-12T00:30:31.091Z,35.25
2022-10-12T00:32:57.717Z,34.50
2022-10-12T00:35:24.777Z,36.05
2022-10-12T00:37:53.938Z,32.00
2022-10-12T00:40:20.627Z,33.92
2022-10-12T00:42:47.168Z,31.70
2022-10-12T00:45:13.809Z,35.67
2022-10-12T00:47:48.871Z,34.90
2022-10-12T00:50:21.081Z,34.83
2022-10-12T00:53:00.721Z,41.20
2022-10-12T00:55:30.386Z,31.77
2022-10-12T00:57:57.201Z,37.28
2022-10-12T01:00:23.926Z,32.55
2022-10-12T01:02:53.626Z,32.60
2022-10-12T01:05:20.869Z,32.15
2022-10-12T01:07:47.430Z,33.92
2022-10-12T01:10:14.612Z,31.67
2022-10-12T01:12:43.535Z,38.05
2022-10-12T01:15:11.727Z,31.88
2022-10-12T01:17:45.875Z,31.80
2022-10-12T01:20:34.023Z,36.60
2022-10-12T01:23:20.835Z,32.80
2022-10-12T01:26:08.038Z,30.17
2022-10-12T01:28:45.562Z,31.98
2022-10-12T01:31:20.443Z,33.20
2022-10-12T01:33:53.724Z,36.22
2022-10-12T01:36:31.618Z,26.15
2022-10-12T01:39:03.957Z,34.60
2022-10-12T01:41:36.106Z,33.17
2022-10-12T01:44:02.723Z,33.10
2022-10-12T01:46:52.098Z,36.10
2022-10-12T01:49:22.859Z,32.00
2022-10-12T01:52:16.034Z,36.45
2022-10-12T01:54:53.716Z,40.03
2022-10-12T01:57:28.696Z,34.80
2022-10-12T02:00:02.690Z,33.88
2022-10-12T02:02:38.930Z,34.55
2022-10-12T02:05:12.521Z,36.75
2022-10-12T02:07:42.620Z,35.75
2022-10-12T02:10:14.664Z,32.63
2022-10-12T02:12:43.909Z,33.65
2022-10-12T02:15:12.920Z,34.13
2022-10-12T02:17:44.369Z,33.10
2022-10-12T02:20:15.065Z,30.92
2022-10-12T02:22:44.879Z,32.03
2022-10-12T02:25:16.857Z,33.63
2022-10-12T02:27:49.007Z,33.05
2022-10-12T02:30:19.236Z,34.70
2022-10-12T02:32:54.699Z,32.63
2022-10-12T02:35:26.480Z,33.47
2022-10-12T02:37:56.516Z,32.97
2022-10-12T02:40:30.239Z,30.17
2022-10-12T02:43:11.150Z,33.40
2022-10-12T02:45:40.936Z,34.72
2022-10-12T02:48:11.295Z,32.47
2022-10-12T02:50:38.229Z,35.33
2022-10-12T02:53:05.254Z,30.45
2022-10-12T02:55:31.984Z,32.03
2022-10-12T02:57:58.565Z,35.97
2022-10-12T03:00:25.167Z,33.33
2022-10-12T03:02:51.744Z,38.38
2022-10-12T03:05:19.643Z,39.30
2022-10-12T03:07:46.180Z,34.38
2022-10-12T03:10:12.732Z,34.40
2022-10-12T03:12:39.250Z,37.78
2022-10-12T03:15:06.617Z,31.40
2022-10-12T03:17:33.153Z,31.40
2022-10-12T03:19:59.681Z,34.60
2022-10-12T03:22:27.573Z,34.40
2022-10-12T03:24:54.108Z,49.10
2022-10-12T03:27:20.658Z,33.70
2022-10-12T03:29:47.179Z,32.20
2022-10-12T03:32:13.751Z,36.85
2022-10-12T03:34:40.247Z,37.53
2022-10-12T03:37:06.822Z,35.95
2022-10-12T03:39:34.709Z,38.15
2022-10-12T03:42:01.360Z,37.42
2022-10-12T03:44:27.879Z,62.33
2022-10-12T03:46:54.456Z,60.10
2022-10-12T03:49:20.983Z,58.55
2022-10-12T03:51:47.608Z,52.88
2022-10-12T03:54:14.313Z,45.13
2022-10-12T03:56:42.263Z,44.72
2022-10-12T03:59:08.904Z,50.75
2022-10-12T04:01:35.506Z,43.28
2022-10-12T04:04:02.077Z,34.88
2022-10-12T04:06:29.019Z,33.55
2022-10-12T04:08:55.554Z,25.98
2022-10-12T04:11:22.133Z,31.95
2022-10-12T04:13:49.991Z,32.22
2022-10-12T04:16:16.660Z,37.28
2022-10-12T04:18:43.158Z,36.08
2022-10-12T04:21:13.106Z,34.17
2022-10-12T04:23:39.747Z,38.70
2022-10-12T04:26:06.808Z,30.85
2022-10-12T04:28:33.750Z,41.25
2022-10-12T04:31:01.649Z,37.55
2022-10-12T04:33:28.194Z,32.70
2022-10-12T04:35:54.708Z,29.45
2022-10-12T04:38:21.237Z,29.33
2022-10-12T04:40:48.392Z,30.60
2022-10-12T04:43:15.321Z,28.20
2022-10-12T04:45:41.940Z,25.77
2022-10-12T04:48:09.937Z,31.73
2022-10-12T04:50:36.646Z,26.02
2022-10-12T04:53:03.196Z,28.27
2022-10-12T04:55:29.695Z,26.58
2022-10-12T04:57:56.218Z,29.98
2022-10-12T05:00:22.714Z,21.52
2022-10-12T05:02:49.290Z,23.48
2022-10-12T05:05:17.275Z,25.65
2022-10-12T05:07:43.833Z,25.08
2022-10-12T05:10:10.463Z,19.25
2022-10-12T05:12:37.305Z,24.77
2022-10-12T05:15:04.723Z,24.42
2022-10-12T05:17:31.278Z,31.25
2022-10-12T05:19:57.822Z,24.33
2022-10-12T05:22:25.789Z,20.63
2022-10-12T05:24:53.905Z,21.73
2022-10-12T05:27:20.790Z,23.42
2022-10-12T05:29:47.339Z,21.95
2022-10-12T05:32:13.928Z,19.80
2022-10-12T05:34:40.483Z,22.13
2022-10-12T05:37:07.024Z,24.08
2022-10-12T05:39:34.954Z,19.95
2022-10-12T05:42:01.519Z,18.25
2022-10-12T05:44:28.098Z,21.17
2022-10-12T05:46:54.666Z,21.98
2022-10-12T05:49:21.969Z,24.40
2022-10-12T05:51:48.509Z,27.23
2022-10-12T05:54:15.064Z,21.77
2022-10-12T05:56:42.995Z,23.98
2022-10-12T05:59:10.617Z,17.73
2022-10-12T06:01:37.234Z,18.65
2022-10-12T06:04:04.150Z,22.00
2022-10-12T06:06:30.769Z,15.93
2022-10-12T06:08:57.320Z,18.75
2022-10-12T06:11:23.873Z,20.92
2022-10-12T06:13:51.798Z,21.25
2022-10-12T06:16:18.336Z,19.05
2022-10-12T06:18:44.896Z,16.17
2022-10-12T06:23:58.102Z,19.17
2022-10-12T06:26:24.759Z,18.80
2022-10-12T06:28:52.764Z,16.50
2022-10-12T06:31:19.503Z,16.70
2022-10-12T06:33:46.071Z,19.83
2022-10-12T06:36:12.596Z,19.63
2022-10-12T06:38:39.139Z,18.60
2022-10-12T06:41:05.998Z,24.10
2022-10-12T06:43:32.539Z,22.20
2022-10-12T06:46:01.663Z,24.50
2022-10-12T06:48:28.427Z,20.17
2022-10-12T06:50:55.116Z,25.92
2022-10-12T06:53:21.712Z,25.10
2022-10-12T06:55:48.309Z,26.95
2022-10-12T06:58:14.854Z,32.45
2022-10-12T07:00:41.434Z,28.85
2022-10-12T07:03:12.144Z,23.92
2022-10-12T07:05:38.753Z,20.80
2022-10-12T07:08:05.286Z,29.17
2022-10-12T07:10:31.839Z,25.48
2022-10-12T07:12:58.372Z,27.30
2022-10-12T07:15:25.007Z,24.33
2022-10-12T07:17:51.534Z,22.13
2022-10-12T07:20:19.450Z,27.00
2022-10-12T07:22:45.967Z,26.90
2022-10-12T07:25:12.514Z,25.65
2022-10-12T07:27:39.392Z,23.52
2022-10-12T07:30:07.398Z,24.70
2022-10-12T07:32:33.938Z,23.30
2022-10-12T07:35:00.459Z,23.05
2022-10-12T07:37:28.386Z,26.35
2022-10-12T07:39:54.927Z,23.77
2022-10-12T07:42:21.448Z,23.88
2022-10-12T07:44:47.994Z,30.88
2022-10-12T07:47:14.653Z,20.85
2022-10-12T07:49:41.253Z,18.63
2022-10-12T07:52:07.784Z,20.42
2022-10-12T07:54:35.722Z,25.10
2022-10-12T07:57:02.285Z,20.33
2022-10-12T07:59:28.977Z,25.02
2022-10-12T08:01:55.603Z,27.88
2022-10-12T08:04:22.223Z,17.25
2022-10-12T08:06:48.772Z,21.58
2022-10-12T08:09:15.335Z,24.15
2022-10-12T08:11:43.212Z,20.77
2022-10-12T08:14:13.588Z,22.20
2022-10-12T08:16:41.783Z,17.85
2022-10-12T08:19:08.344Z,22.50
2022-10-12T08:21:34.896Z,23.73
2022-10-12T08:24:01.530Z,22.75
2022-10-12T08:26:28.087Z,24.15
2022-10-12T08:28:56.180Z,28.38
2022-10-12T08:31:22.782Z,17.52
2022-10-12T08:33:49.316Z,23.98
2022-10-12T08:36:16.094Z,19.83
2022-10-12T08:38:42.661Z,27.65
2022-10-12T08:41:23.898Z,20.30
2022-10-12T08:44:28.443Z,22.85
2022-10-12T08:46:56.620Z,16.42
2022-10-12T08:49:26.179Z,21.08
2022-10-12T08:51:55.143Z,22.23
2022-10-12T08:54:24.836Z,24.48
2022-10-12T08:56:53.369Z,23.08
2022-10-12T08:59:20.097Z,19.20
2022-10-12T09:02:01.877Z,19.33
2022-10-12T09:04:45.214Z,18.35
2022-10-12T09:07:17.984Z,19.40
2022-10-12T09:09:57.611Z,18.20
2022-10-12T09:12:38.079Z,23.58
2022-10-12T09:15:11.963Z,19.58
2022-10-12T09:17:44.387Z,18.50
2022-10-12T09:20:17.676Z,18.73
2022-10-12T09:22:47.832Z,18.52
2022-10-12T09:25:16.439Z,17.40
2022-10-12T09:27:45.480Z,18.73
2022-10-12T09:30:14.497Z,20.73
2022-10-12T09:32:59.026Z,21.05
2022-10-12T09:35:25.682Z,14.45
2022-10-12T09:37:53.624Z,19.40
2022-10-12T09:40:22.946Z,22.27
2022-10-12T09:42:50.838Z,17.30
2022-10-12T09:45:19.736Z,17.02
2022-10-12T09:48:13.562Z,16.17
2022-10-12T09:50:42.178Z,20.05
2022-10-12T09:53:15.013Z,21.88
2022-10-12T09:55:52.951Z,22.25
2022-10-12T09:58:21.400Z,23.55
2022-10-12T10:01:15.776Z,19.95
2022-10-12T10:03:43.717Z,18.08
2022-10-12T10:06:10.420Z,19.60
2022-10-12T10:08:42.458Z,18.08
2022-10-12T10:11:15.139Z,19.25
2022-10-12T10:13:48.060Z,18.80
2022-10-12T10:16:14.878Z,17.75
2022-10-12T10:18:45.011Z,22.23
2022-10-12T10:21:13.719Z,21.80
2022-10-12T10:23:44.564Z,17.30
2022-10-12T10:26:14.133Z,19.77
2022-10-12T10:28:42.642Z,25.85
2022-10-12T10:31:18.466Z,21.23
2022-10-12T10:34:04.403Z,17.48
2022-10-12T10:36:34.329Z,19.80
2022-10-12T10:39:02.736Z,15.50
2022-10-12T10:41:34.523Z,20.55
2022-10-12T10:46:30.931Z,18.05
2022-10-12T10:49:01.445Z,17.55
2022-10-12T10:51:43.326Z,16.58
2022-10-12T10:56:40.673Z,17.10
2022-10-12T10:59:19.008Z,17.60
2022-10-12T11:01:52.919Z,20.00
2022-10-12T11:04:26.154Z,17.55
2022-10-12T11:06:55.743Z,17.45
2022-10-12T11:09:26.817Z,22.27
2022-10-12T11:11:57.620Z,25.00
2022-10-12T11:14:31.029Z,20.75
2022-10-12T11:17:00.985Z,18.35
2022-10-12T11:19:33.979Z,22.95
2022-10-12T11:22:04.740Z,16.45
2022-10-12T11:24:38.493Z,20.27
2022-10-12T11:27:11.015Z,14.10
2022-10-12T11:29:38.191Z,14.02
2022-10-12T11:32:12.412Z,18.58
2022-10-12T11:34:48.365Z,17.05
2022-10-12T11:37:20.949Z,13.90
2022-10-12T11:39:51.725Z,13.13
2022-10-12T11:42:27.424Z,15.88
2022-10-12T11:44:54.809Z,16.73
2022-10-12T11:47:31.390Z,12.00
2022-10-12T11:50:02.274Z,14.32
2022-10-12T11:52:35.902Z,14.65
2022-10-12T11:55:25.049Z,13.13
2022-10-12T11:57:54.310Z,17.90
2022-10-12T12:00:24.882Z,17.50
2022-10-12T12:02:58.810Z,17.08
2022-10-12T12:05:31.169Z,12.18
2022-10-12T12:07:57.833Z,19.67
2022-10-12T12:10:44.487Z,11.07
2022-10-12T12:13:20.291Z,15.70
2022-10-12T12:16:31.651Z,14.65
2022-10-12T12:19:30.763Z,16.73
2022-10-12T12:22:26.964Z,12.43
2022-10-12T12:25:19.253Z,17.10
2022-10-12T12:27:49.918Z,18.38
2022-10-12T12:30:36.872Z,18.63
2022-10-12T12:33:07.013Z,12.77
2022-10-12T12:35:38.368Z,15.75
2022-10-12T12:38:16.825Z,14.63
2022-10-12T12:41:05.705Z,19.02
2022-10-12T12:44:01.351Z,18.00
2022-10-12T12:47:32.609Z,18.58
2022-10-12T12:49:57.181Z,12.35
2022-10-12T12:52:27.501Z,14.30
2022-10-12T12:55:27.033Z,15.50
2022-10-12T12:58:15.048Z,20.23
2022-10-12T13:00:56.654Z,15.38
2022-10-12T13:04:03.130Z,15.65
2022-10-12T13:07:29.269Z,18.88
2022-10-12T13:10:22.030Z,14.70
2022-10-12T13:13:11.140Z,15.52
2022-10-12T13:15:49.717Z,14.95
2022-10-12T13:18:47.621Z,15.68
2022-10-12T13:21:19.246Z,14.65
2022-10-12T13:23:49.039Z,17.45
2022-10-12T13:26:21.710Z,14.15
2022-10-12T13:28:49.103Z,15.27
2022-10-12T13:31:19.818Z,14.55
2022-10-12T13:33:53.975Z,15.02
2022-10-12T13:36:23.360Z,12.85
2022-10-12T13:38:55.700Z,15.07
2022-10-12T13:41:25.119Z,18.90
2022-10-12T13:43:54.273Z,12.00
2022-10-12T13:46:40.649Z,11.23
2022-10-12T13:49:14.444Z,11.20
2022-10-12T13:51:42.766Z,14.77
2022-10-12T13:54:17.540Z,18.45
2022-10-12T13:56:47.812Z,11.50
2022-10-12T13:59:19.080Z,14.07
2022-10-12T14:01:50.503Z,10.48
2022-10-12T14:04:17.064Z,15.23
2022-10-12T14:06:47.919Z,13.25
2022-10-12T14:09:18.447Z,13.83
2022-10-12T14:11:47.063Z,14.60
2022-10-12T14:14:20.344Z,11.85
2022-10-12T14:16:46.923Z,17.73
2022-10-12T14:19:21.715Z,11.70
2022-10-12T14:21:49.019Z,14.52
2022-10-12T14:24:18.805Z,12.35
2022-10-12T14:26:54.327Z,14.60
2022-10-12T14:29:36.201Z,17.20
2022-10-12T14:34:42.163Z,10.85
2022-10-12T14:37:28.855Z,13.50
2022-10-12T14:39:56.423Z,14.02
2022-10-12T14:42:29.671Z,14.10
2022-10-12T14:44:56.332Z,10.98
2022-10-12T14:47:25.246Z,15.98
2022-10-12T14:49:54.128Z,12.77
2022-10-12T14:52:24.788Z,13.07
2022-10-12T14:54:51.666Z,19.00
2022-10-12T14:57:19.396Z,13.00
2022-10-12T14:59:47.703Z,16.73
2022-10-12T15:02:19.523Z,16.20
2022-10-12T15:04:46.699Z,17.10
2022-10-12T15:07:15.850Z,13.65
2022-10-12T15:09:42.456Z,20.25
2022-10-12T15:12:11.768Z,16.55
2022-10-12T15:14:38.340Z,17.05
2022-10-12T15:17:06.204Z,15.43
2022-10-12T15:19:32.778Z,20.65
2022-10-12T15:21:59.285Z,8.60
2022-10-12T15:24:25.819Z,15.38
2022-10-12T15:26:52.411Z,18.08
2022-10-12T15:29:18.941Z,16.38
2022-10-12T15:31:48.969Z,14.35
2022-10-12T15:34:19.003Z,14.48
2022-10-12T15:36:45.555Z,13.00
2022-10-12T15:39:12.143Z,11.80
2022-10-12T15:41:38.727Z,15.00
2022-10-12T15:44:06.270Z,16.67
2022-10-12T15:46:32.809Z,18.83
2022-10-12T15:48:59.293Z,12.95
2022-10-12T15:51:27.211Z,17.70
2022-10-12T15:53:54.597Z,14.57
2022-10-12T15:56:22.326Z,20.17
2022-10-12T15:58:49.022Z,17.85
2022-10-12T16:01:19.854Z,15.25
2022-10-12T16:03:47.438Z,16.90
2022-10-12T16:06:14.406Z,14.32
2022-10-12T16:08:42.463Z,19.63
2022-10-12T16:11:13.131Z,14.18
2022-10-12T16:13:46.365Z,18.52
2022-10-12T16:16:15.627Z,17.63
2022-10-12T16:18:42.187Z,21.75
2022-10-12T16:21:09.096Z,17.33
2022-10-12T16:23:36.990Z,13.02
2022-10-12T16:26:08.120Z,13.65
2022-10-12T16:28:34.869Z,16.08
2022-10-12T16:31:01.678Z,18.67
2022-10-12T16:33:28.218Z,15.82
2022-10-12T16:35:54.786Z,21.10
2022-10-12T16:38:21.339Z,16.30
2022-10-12T16:40:48.152Z,13.20
2022-10-12T16:43:16.023Z,17.73
2022-10-12T16:45:42.554Z,18.27
2022-10-12T16:48:09.119Z,18.00
2022-10-12T16:50:38.466Z,24.02
2022-10-12T16:53:04.994Z,15.77
2022-10-12T16:55:31.554Z,16.70
2022-10-12T16:57:58.074Z,15.32
2022-10-12T17:00:25.953Z,20.92
2022-10-12T17:02:57.266Z,19.55
2022-10-12T17:05:24.103Z,12.43
2022-10-12T17:07:50.617Z,19.52
2022-10-12T17:10:17.286Z,18.08
2022-10-12T17:12:43.814Z,18.02
2022-10-12T17:15:10.588Z,16.83
2022-10-12T17:17:38.437Z,15.23
2022-10-12T17:20:05.787Z,19.65
2022-10-12T17:22:32.319Z,15.70
2022-10-12T17:24:58.828Z,17.80
2022-10-12T17:27:29.899Z,18.08
2022-10-12T17:29:58.786Z,18.48
2022-10-12T17:32:25.310Z,18.90
2022-10-12T17:34:53.238Z,21.00
2022-10-12T17:37:19.767Z,20.13
2022-10-12T17:39:46.439Z,17.35
2022-10-12T17:42:13.388Z,15.00
2022-10-12T17:44:40.196Z,23.88
2022-10-12T17:47:06.986Z,15.98
2022-10-12T17:49:33.533Z,28.70
2022-10-12T17:52:01.394Z,15.68
2022-10-12T17:54:27.976Z,17.50
2022-10-12T17:56:55.114Z,17.55
2022-10-12T17:59:22.188Z,15.48
2022-10-12T18:01:49.708Z,19.88
2022-10-12T18:04:16.325Z,14.75
2022-10-12T18:06:43.027Z,20.90
2022-10-12T18:09:11.524Z,19.17
2022-10-12T18:11:38.286Z,20.38
2022-10-12T18:14:07.186Z,21.02
2022-10-12T18:16:34.455Z,18.55
2022-10-12T18:19:03.122Z,14.70
2022-10-12T18:21:31.955Z,20.40
2022-10-12T18:24:01.121Z,17.92
2022-10-12T18:26:29.055Z,14.68
2022-10-12T18:28:55.876Z,16.92
2022-10-12T18:31:24.165Z,18.23
2022-10-12T18:33:51.180Z,13.82
2022-10-12T18:36:19.246Z,15.15
2022-10-12T18:38:46.266Z,24.13
2022-10-12T18:41:16.165Z,16.02
2022-10-12T18:43:44.403Z,18.67
2022-10-12T18:46:13.291Z,17.08
2022-10-12T18:48:40.683Z,15.93
2022-10-12T18:51:09.311Z,18.27
2022-10-12T18:53:35.863Z,21.95
2022-10-12T18:56:03.374Z,19.33
2022-10-12T18:58:30.126Z,17.45
2022-10-12T19:00:58.313Z,11.55
2022-10-12T19:03:26.197Z,16.60
2022-10-12T19:06:01.816Z,23.15
2022-10-12T19:08:28.450Z,17.23
2022-10-12T19:10:54.960Z,17.63
2022-10-12T19:13:21.505Z,24.92
2022-10-12T19:15:48.025Z,17.85
2022-10-12T19:18:15.908Z,20.40
2022-10-12T19:20:42.438Z,19.85
2022-10-12T19:23:08.985Z,15.70
2022-10-12T19:25:37.112Z,23.15
2022-10-12T19:28:03.729Z,21.13
2022-10-12T19:30:30.288Z,38.72
2022-10-12T19:32:56.846Z,22.83
2022-10-12T19:35:24.710Z,22.15
2022-10-12T19:37:51.302Z,21.67
2022-10-12T19:40:18.932Z,21.88
2022-10-12T19:42:47.066Z,22.95
2022-10-12T19:45:13.614Z,19.15
2022-10-12T19:47:40.188Z,25.25
2022-10-12T19:50:06.949Z,21.33
2022-10-12T19:52:34.825Z,25.60
2022-10-12T19:55:01.330Z,26.17
2022-10-12T19:57:27.879Z,18.48
2022-10-12T19:59:54.400Z,17.02
2022-10-12T20:02:21.262Z,22.05
2022-10-12T20:04:47.956Z,18.15
2022-10-12T20:07:14.490Z,22.20
2022-10-12T20:09:42.373Z,22.08
2022-10-12T20:12:08.935Z,19.50
2022-10-12T20:14:35.471Z,21.73
2022-10-12T20:17:02.004Z,23.48
2022-10-12T20:19:28.737Z,22.48
2022-10-12T20:21:55.309Z,18.45
2022-10-12T20:24:21.876Z,19.70
2022-10-12T20:26:49.767Z,24.40
2022-10-12T20:29:16.310Z,22.85
2022-10-12T20:31:42.874Z,26.73
2022-10-12T20:34:09.429Z,26.52
2022-10-12T20:36:36.143Z,22.42
2022-10-12T20:39:03.405Z,19.67
2022-10-12T20:41:29.963Z,20.45
2022-10-12T20:43:59.921Z,21.58
2022-10-12T20:46:27.845Z,26.42
2022-10-12T20:48:58.600Z,36.28
2022-10-12T20:51:27.811Z,34.33
2022-10-12T20:53:54.951Z,37.72
2022-10-12T20:56:21.527Z,39.17
2022-10-12T20:58:48.085Z,45.20
2022-10-12T21:01:17.184Z,46.60
2022-10-12T21:03:43.935Z,48.05
2022-10-12T21:06:13.214Z,66.45
2022-10-12T21:08:40.230Z,75.53
2022-10-12T21:11:07.581Z,72.07
2022-10-12T21:13:35.678Z,50.88
2022-10-12T21:16:02.228Z,35.38
2022-10-12T21:18:34.058Z,42.25
2022-10-12T21:21:06.152Z,22.55
2022-10-12T21:23:32.703Z,23.73
2022-10-12T21:25:59.271Z,33.38
2022-10-12T21:28:25.821Z,28.52
2022-10-12T21:30:52.403Z,24.95
2022-10-12T21:33:18.926Z,26.40
2022-10-12T21:35:46.852Z,28.80
2022-10-12T21:38:13.385Z,27.20
2022-10-12T21:40:39.943Z,25.95
2022-10-12T21:43:06.508Z,24.30
2022-10-12T21:45:33.212Z,30.08
2022-10-12T21:47:59.771Z,23.08
2022-10-12T21:50:26.813Z,27.20
2022-10-12T21:53:00.065Z,26.70
2022-10-12T21:55:27.033Z,37.67
2022-10-12T21:57:53.568Z,26.15
2022-10-12T22:00:20.187Z,34.90
2022-10-12T22:02:46.703Z,26.58
2022-10-12T22:05:13.413Z,34.55
2022-10-12T22:07:41.642Z,30.13
2022-10-12T22:10:10.756Z,26.15
2022-10-12T22:12:38.075Z,32.05
2022-10-12T22:15:05.476Z,30.02
2022-10-12T22:17:32.006Z,27.88
2022-10-12T22:19:58.537Z,27.05
2022-10-12T22:22:25.080Z,31.85
2022-10-12T22:24:51.602Z,27.20
2022-10-12T22:27:19.558Z,25.90
2022-10-12T22:29:46.142Z,29.67
2022-10-12T22:32:12.706Z,31.58
2022-10-12T22:34:39.244Z,30.88
2022-10-12T22:37:05.764Z,30.83
2022-10-12T22:39:32.295Z,28.08
2022-10-12T22:41:58.827Z,26.67
2022-10-12T22:44:26.717Z,31.42
2022-10-12T22:46:53.263Z,31.55
2022-10-12T22:49:19.973Z,29.40
2022-10-12T22:51:46.471Z,28.02
2022-10-12T22:54:13.019Z,37.08
2022-10-12T22:56:39.965Z,25.50
2022-10-12T22:59:06.950Z,34.65
2022-10-12T23:01:35.871Z,34.33
2022-10-12T23:04:02.541Z,35.72
2022-10-12T23:06:29.075Z,29.30
2022-10-12T23:08:55.653Z,29.67
2022-10-12T23:11:24.639Z,28.02
2022-10-12T23:13:51.715Z,30.55
2022-10-12T23:16:20.420Z,30.10
2022-10-12T23:18:56.660Z,31.70
2022-10-12T23:21:26.004Z,30.05
2022-10-12T23:23:52.587Z,34.70
2022-10-12T23:26:21.111Z,33.90
2022-10-12T23:28:48.945Z,37.50
2022-10-12T23:31:17.337Z,27.65
2022-10-12T23:33:44.139Z,35.53
2022-10-12T23:36:14.184Z,31.77
2022-10-12T23:38:42.007Z,28.95
2022-10-12T23:41:09.496Z,28.60
2022-10-12T23:43:36.231Z,30.73
2022-10-12T23:46:03.507Z,29.35
2022-10-12T23:48:30.045Z,32.97
2022-10-12T23:50:56.745Z,31.63
2022-10-12T23:53:25.334Z,28.58
2022-10-12T23:55:52.465Z,30.50
2022-10-12T23:58:19.524Z,35.00
